createdAt,value
2017-06-02T00:00:10.331Z,12
2017-06-02T00:01:23.324Z,4
2017-06-02T00:02:35.636Z,16
2017-06-02T00:03:47.479Z,12
2017-06-02T00:05:00.282Z,12
2017-06-02T00:06:12.130Z,12
2017-06-02T00:07:25.237Z,12
2017-06-02T00:08:38.194Z,12
2017-06-02T00:09:51.232Z,12
2017-06-02T00:11:04.100Z,12
2017-06-02T00:12:16.533Z,12
2017-06-02T00:13:29.464Z,12
2017-06-02T00:14:42.388Z,12
2017-06-02T00:15:55.247Z,12
2017-06-02T00:17:08.124Z,12
2017-06-02T00:18:20.986Z,12
2017-06-02T00:19:33.371Z,12
2017-06-02T00:20:46.252Z,12
2017-06-02T00:21:59.126Z,12
2017-06-02T00:23:11.990Z,12
2017-06-02T00:24:25.059Z,12
2017-06-02T00:25:37.932Z,12
2017-06-02T00:26:50.320Z,12
2017-06-02T00:28:03.191Z,12
2017-06-02T00:29:15.081Z,12
2017-06-02T00:30:27.460Z,12
2017-06-02T00:31:40.331Z,12
2017-06-02T00:32:53.197Z,12
2017-06-02T00:34:06.062Z,8
2017-06-02T00:35:18.452Z,12
2017-06-02T00:36:30.831Z,12
2017-06-02T00:37:43.214Z,12
2017-06-02T00:38:56.075Z,12
2017-06-02T00:40:08.650Z,12
2017-06-02T00:41:21.029Z,12
2017-06-02T00:42:33.405Z,12
2017-06-02T00:43:46.262Z,8
2017-06-02T00:44:59.181Z,12
2017-06-02T00:46:12.249Z,12
2017-06-02T00:47:25.120Z,12
2017-06-02T00:48:37.500Z,12
2017-06-02T00:49:49.882Z,12
2017-06-02T00:51:02.263Z,12
2017-06-02T00:52:14.649Z,12
2017-06-02T00:53:27.033Z,12
2017-06-02T00:54:39.893Z,12
2017-06-02T00:55:52.758Z,12
2017-06-02T00:57:05.628Z,12
2017-06-02T00:58:18.006Z,12
2017-06-02T00:59:29.897Z,12
2017-06-02T01:00:42.759Z,12
2017-06-02T01:01:55.631Z,8
2017-06-02T01:03:08.022Z,12
2017-06-02T01:04:20.891Z,12
2017-06-02T01:05:33.270Z,12
2017-06-02T01:06:46.142Z,12
2017-06-02T01:07:59.212Z,12
2017-06-02T01:09:11.117Z,12
2017-06-02T01:10:23.981Z,12
2017-06-02T01:11:36.852Z,12
2017-06-02T01:12:49.925Z,12
2017-06-02T01:14:02.302Z,12
2017-06-02T01:15:15.165Z,12
2017-06-02T01:16:27.056Z,12
2017-06-02T01:17:39.931Z,12
2017-06-02T01:18:52.399Z,12
2017-06-02T01:20:04.902Z,12
2017-06-02T01:21:17.895Z,12
2017-06-02T01:22:30.394Z,12
2017-06-02T01:23:43.396Z,12
2017-06-02T01:24:56.395Z,12
2017-06-02T01:26:08.403Z,12
2017-06-02T01:27:20.850Z,12
2017-06-02T01:28:33.275Z,12
2017-06-02T01:29:46.193Z,12
2017-06-02T01:30:59.109Z,12
2017-06-02T01:32:11.537Z,12
2017-06-02T01:33:23.474Z,12
2017-06-02T01:34:36.096Z,12
2017-06-02T01:35:48.521Z,12
2017-06-02T01:37:01.441Z,12
2017-06-02T01:38:14.354Z,12
2017-06-02T01:39:27.273Z,12
2017-06-02T01:40:40.415Z,12
2017-06-02T01:41:53.331Z,12
2017-06-02T01:43:06.246Z,12
2017-06-02T01:44:19.162Z,12
2017-06-02T01:45:31.592Z,12
2017-06-02T01:46:44.514Z,12
2017-06-02T01:47:57.425Z,12
2017-06-02T01:49:09.859Z,12
2017-06-02T01:50:22.283Z,12
2017-06-02T01:51:35.206Z,12
2017-06-02T01:52:48.137Z,12
2017-06-02T01:54:00.564Z,12
2017-06-02T01:55:12.497Z,12
2017-06-02T01:56:25.421Z,12
2017-06-02T01:57:38.341Z,12
2017-06-02T01:58:51.260Z,12
2017-06-02T02:00:03.683Z,12
2017-06-02T02:01:15.621Z,12
2017-06-02T02:02:28.535Z,12
2017-06-02T02:03:41.398Z,4
2017-06-02T02:04:53.224Z,4
2017-06-02T02:06:06.001Z,16
2017-06-02T02:07:18.018Z,12
2017-06-02T02:08:29.840Z,12
2017-06-02T02:09:42.627Z,12
2017-06-02T02:10:55.412Z,12
2017-06-02T02:12:08.188Z,12
2017-06-02T02:13:20.008Z,12
2017-06-02T02:14:32.795Z,12
2017-06-02T02:15:45.581Z,12
2017-06-02T02:16:58.367Z,8
2017-06-02T02:18:10.178Z,16
2017-06-02T02:19:22.477Z,12
2017-06-02T02:20:34.783Z,12
2017-06-02T02:21:47.079Z,12
2017-06-02T02:22:59.388Z,12
2017-06-02T02:24:11.691Z,12
2017-06-02T02:25:24.472Z,12
2017-06-02T02:26:37.255Z,12
2017-06-02T02:27:49.550Z,12
2017-06-02T02:29:02.340Z,12
2017-06-02T02:30:14.672Z,12
2017-06-02T02:31:26.999Z,12
2017-06-02T02:32:39.298Z,12
2017-06-02T02:33:51.617Z,12
2017-06-02T02:35:04.608Z,12
2017-06-02T02:36:16.432Z,12
2017-06-02T02:37:29.217Z,12
2017-06-02T02:38:42.003Z,12
2017-06-02T02:39:54.802Z,12
2017-06-02T02:41:07.313Z,12
2017-06-02T02:42:19.133Z,12
2017-06-02T02:43:31.431Z,12
2017-06-02T02:44:44.216Z,12
2017-06-02T02:45:56.717Z,12
2017-06-02T02:47:09.497Z,12
2017-06-02T02:48:22.281Z,12
2017-06-02T02:49:35.146Z,12
2017-06-02T02:50:48.043Z,12
2017-06-02T02:52:00.655Z,12
2017-06-02T02:53:13.553Z,12
2017-06-02T02:54:25.957Z,12
2017-06-02T02:55:38.364Z,12
2017-06-02T02:56:51.258Z,4
2017-06-02T02:58:03.659Z,16
2017-06-02T02:59:15.568Z,12
2017-06-02T03:00:27.480Z,12
2017-06-02T03:01:40.375Z,12
2017-06-02T03:02:53.472Z,12
2017-06-02T03:04:05.881Z,12
2017-06-02T03:05:17.307Z,12
2017-06-02T03:06:29.712Z,12
2017-06-02T03:07:42.810Z,12
2017-06-02T03:08:55.214Z,12
2017-06-02T03:10:07.134Z,12
2017-06-02T03:11:19.546Z,12
2017-06-02T03:12:32.445Z,12
2017-06-02T03:13:45.338Z,12
2017-06-02T03:14:57.797Z,16
2017-06-02T03:16:10.783Z,12
2017-06-02T03:17:23.270Z,12
2017-06-02T03:18:36.451Z,12
2017-06-02T03:19:49.425Z,12
2017-06-02T03:21:01.906Z,12
2017-06-02T03:22:14.391Z,12
2017-06-02T03:23:27.374Z,12
2017-06-02T03:24:39.566Z,12
2017-06-02T03:25:52.047Z,12
2017-06-02T03:27:04.528Z,12
2017-06-02T03:28:17.503Z,12
2017-06-02T03:29:30.187Z,12
2017-06-02T03:30:43.170Z,12
2017-06-02T03:31:56.155Z,12
2017-06-02T03:33:09.132Z,16
2017-06-02T03:34:21.531Z,12
2017-06-02T03:35:33.900Z,12
2017-06-02T03:36:46.764Z,12
2017-06-02T03:37:59.622Z,12
2017-06-02T03:39:11.990Z,12
2017-06-02T03:40:25.046Z,12
2017-06-02T03:41:37.946Z,12
2017-06-02T03:42:49.844Z,12
2017-06-02T03:44:02.698Z,12
2017-06-02T03:45:15.067Z,12
2017-06-02T03:46:28.124Z,12
2017-06-02T03:47:40.978Z,12
2017-06-02T03:48:53.349Z,12
2017-06-02T03:50:06.206Z,12
2017-06-02T03:51:18.288Z,12
2017-06-02T03:52:30.174Z,12
2017-06-02T03:53:43.032Z,16
2017-06-02T03:54:55.401Z,12
2017-06-02T03:56:08.251Z,16
2017-06-02T03:57:21.305Z,12
2017-06-02T03:58:33.189Z,12
2017-06-02T03:59:46.047Z,12
2017-06-02T04:00:58.437Z,12
2017-06-02T04:02:11.294Z,12
2017-06-02T04:03:23.664Z,12
2017-06-02T04:04:36.525Z,16
2017-06-02T04:05:49.383Z,12
2017-06-02T04:07:01.266Z,4
2017-06-02T04:08:13.835Z,4
2017-06-02T04:09:26.690Z,4
2017-06-02T04:10:39.546Z,12
2017-06-02T04:11:51.914Z,16
2017-06-02T04:13:04.284Z,12
2017-06-02T04:14:16.675Z,12
2017-06-02T04:15:29.531Z,12
2017-06-02T04:16:42.387Z,12
2017-06-02T04:17:55.249Z,12
2017-06-02T04:19:08.307Z,12
2017-06-02T04:20:20.673Z,12
2017-06-02T04:21:33.049Z,12
2017-06-02T04:22:44.929Z,12
2017-06-02T04:23:57.499Z,12
2017-06-02T04:25:08.893Z,12
2017-06-02T04:26:21.266Z,12
2017-06-02T04:27:33.151Z,12
2017-06-02T04:28:46.004Z,12
2017-06-02T04:29:58.084Z,12
2017-06-02T04:31:10.940Z,12
2017-06-02T04:32:23.310Z,12
2017-06-02T04:33:36.170Z,12
2017-06-02T04:34:48.545Z,12
2017-06-02T04:36:00.630Z,12
2017-06-02T04:37:12.996Z,12
2017-06-02T04:38:25.914Z,4
2017-06-02T04:39:38.786Z,12
2017-06-02T04:40:51.177Z,12
2017-06-02T04:42:04.032Z,12
2017-06-02T04:43:16.887Z,12
2017-06-02T04:44:29.753Z,12
2017-06-02T04:45:42.613Z,12
2017-06-02T04:46:55.183Z,12
2017-06-02T04:48:08.034Z,12
2017-06-02T04:49:18.941Z,12
2017-06-02T04:50:30.829Z,12
2017-06-02T04:51:43.407Z,12
2017-06-02T04:52:55.774Z,12
2017-06-02T04:54:08.139Z,12
2017-06-02T04:55:21.000Z,4
2017-06-02T04:56:33.859Z,16
2017-06-02T04:57:46.927Z,12
2017-06-02T04:58:58.807Z,12
2017-06-02T05:00:10.690Z,12
2017-06-02T05:01:23.553Z,12
2017-06-02T05:02:36.128Z,12
2017-06-02T05:03:49.134Z,12
2017-06-02T05:05:02.193Z,12
2017-06-02T05:06:14.751Z,12
2017-06-02T05:07:27.304Z,12
2017-06-02T05:08:40.552Z,12
2017-06-02T05:09:53.103Z,12
2017-06-02T05:11:05.660Z,12
2017-06-02T05:12:17.209Z,12
2017-06-02T05:13:30.465Z,12
2017-06-02T05:14:43.023Z,12
2017-06-02T05:15:56.074Z,12
2017-06-02T05:17:08.126Z,12
2017-06-02T05:18:20.183Z,12
2017-06-02T05:19:32.936Z,12
2017-06-02T05:20:45.494Z,12
2017-06-02T05:21:58.552Z,12
2017-06-02T05:23:11.606Z,12
2017-06-02T05:24:24.173Z,12
2017-06-02T05:25:37.229Z,12
2017-06-02T05:26:50.281Z,12
2017-06-02T05:28:03.333Z,12
2017-06-02T05:29:14.892Z,12
2017-06-02T05:30:27.650Z,12
2017-06-02T05:31:40.201Z,12
2017-06-02T05:32:53.257Z,12
2017-06-02T05:34:05.812Z,12
2017-06-02T05:35:19.065Z,12
2017-06-02T05:36:32.137Z,12
2017-06-02T05:37:45.189Z,12
2017-06-02T05:38:57.160Z,12
2017-06-02T05:40:09.580Z,12
2017-06-02T05:41:22.004Z,12
2017-06-02T05:42:34.919Z,12
2017-06-02T05:43:47.839Z,12
2017-06-02T05:45:00.259Z,12
2017-06-02T05:46:12.393Z,8
2017-06-02T05:47:24.328Z,12
2017-06-02T05:48:37.235Z,12
2017-06-02T05:49:50.128Z,12
2017-06-02T05:51:03.026Z,12
2017-06-02T05:52:15.628Z,12
2017-06-02T05:53:28.519Z,4
2017-06-02T05:54:40.922Z,12
2017-06-02T05:55:53.812Z,12
2017-06-02T05:57:05.728Z,12
2017-06-02T05:58:18.619Z,12
2017-06-02T05:59:31.024Z,12
2017-06-02T06:00:43.917Z,12
2017-06-02T06:01:55.832Z,12
2017-06-02T06:03:08.434Z,12
2017-06-02T06:04:20.347Z,12
2017-06-02T06:05:33.247Z,12
2017-06-02T06:06:46.138Z,12
2017-06-02T06:07:58.546Z,8
2017-06-02T06:09:11.440Z,12
2017-06-02T06:10:24.335Z,12
2017-06-02T06:11:37.228Z,12
2017-06-02T06:12:50.119Z,12
2017-06-02T06:14:03.237Z,12
2017-06-02T06:15:15.647Z,12
2017-06-02T06:16:27.559Z,12
2017-06-02T06:17:40.457Z,12
2017-06-02T06:18:53.346Z,12
2017-06-02T06:20:19.797Z,12
2017-06-02T06:21:32.688Z,12
2017-06-02T06:22:45.585Z,12
2017-06-02T06:23:58.004Z,12
2017-06-02T06:25:10.896Z,12
2017-06-02T06:26:23.791Z,12
2017-06-02T06:27:36.699Z,12
2017-06-02T06:28:49.595Z,12
2017-06-02T06:30:01.704Z,12
2017-06-02T06:31:14.127Z,12
2017-06-02T06:32:27.019Z,12
2017-06-02T06:33:39.427Z,12
2017-06-02T06:34:52.338Z,12
2017-06-02T06:36:04.763Z,12
2017-06-02T06:37:17.680Z,12
2017-06-02T06:38:30.108Z,4
2017-06-02T06:39:42.529Z,16
2017-06-02T06:40:55.463Z,16
2017-06-02T06:42:07.881Z,16
2017-06-02T06:43:20.798Z,12
2017-06-02T06:44:33.724Z,12
2017-06-02T06:45:45.651Z,12
2017-06-02T06:46:58.069Z,8
2017-06-02T06:48:11.005Z,12
2017-06-02T06:49:23.915Z,12
2017-06-02T06:50:36.338Z,8
2017-06-02T06:51:49.448Z,12
2017-06-02T06:53:02.357Z,12
2017-06-02T06:54:14.779Z,12
2017-06-02T06:55:27.199Z,12
2017-06-02T06:56:40.113Z,16
2017-06-02T06:57:52.736Z,12
2017-06-02T06:59:05.644Z,12
2017-06-02T07:00:18.560Z,4
2017-06-02T07:01:31.475Z,12
2017-06-02T07:02:44.589Z,12
2017-06-02T07:03:57.500Z,12
2017-06-02T07:05:10.440Z,12
2017-06-02T07:06:23.350Z,4
2017-06-02T07:07:35.772Z,12
2017-06-02T07:08:48.882Z,12
2017-06-02T07:10:01.798Z,4
2017-06-02T07:11:14.712Z,12
2017-06-02T07:12:27.141Z,12
2017-06-02T07:13:40.254Z,12
2017-06-02T07:14:53.166Z,12
2017-06-02T07:16:05.580Z,12
2017-06-02T07:17:17.019Z,12
2017-06-02T07:18:29.934Z,8
2017-06-02T07:19:43.032Z,16
2017-06-02T07:20:55.937Z,12
2017-06-02T07:22:08.833Z,4
2017-06-02T07:23:21.718Z,12
2017-06-02T07:24:33.836Z,12
2017-06-02T07:25:46.736Z,12
2017-06-02T07:26:59.164Z,12
2017-06-02T07:28:11.082Z,12
2017-06-02T07:29:23.479Z,12
2017-06-02T07:30:36.583Z,12
2017-06-02T07:31:49.474Z,4
2017-06-02T07:33:02.365Z,4
2017-06-02T07:34:14.766Z,12
2017-06-02T07:35:27.370Z,12
2017-06-02T07:36:39.773Z,12
2017-06-02T07:37:52.661Z,12
2017-06-02T07:39:05.555Z,12
2017-06-02T07:40:17.970Z,12
2017-06-02T07:41:30.869Z,12
2017-06-02T07:42:43.270Z,12
2017-06-02T07:43:56.163Z,4
2017-06-02T07:45:08.078Z,4
2017-06-02T07:46:20.968Z,12
2017-06-02T07:47:33.379Z,12
2017-06-02T07:48:46.271Z,8
2017-06-02T07:49:58.673Z,12
2017-06-02T07:51:11.092Z,12
2017-06-02T07:52:23.000Z,12
2017-06-02T07:53:34.922Z,12
2017-06-02T07:54:47.811Z,12
2017-06-02T07:56:00.218Z,12
2017-06-02T07:57:13.112Z,12
2017-06-02T07:58:26.003Z,12
2017-06-02T07:59:37.922Z,12
2017-06-02T08:00:50.814Z,12
2017-06-02T08:02:03.705Z,12
2017-06-02T08:03:14.897Z,12
2017-06-02T08:04:27.803Z,12
2017-06-02T08:05:40.694Z,12
2017-06-02T08:06:53.595Z,12
2017-06-02T08:08:06.684Z,12
2017-06-02T08:09:19.086Z,12
2017-06-02T08:10:31.492Z,12
2017-06-02T08:11:44.383Z,12
2017-06-02T08:12:57.280Z,12
2017-06-02T08:14:09.396Z,12
2017-06-02T08:15:22.286Z,12
2017-06-02T08:16:34.687Z,12
2017-06-02T08:17:47.587Z,12
2017-06-02T08:19:00.680Z,12
2017-06-02T08:20:13.570Z,12
2017-06-02T08:21:25.482Z,12
2017-06-02T08:22:37.889Z,4
2017-06-02T08:23:50.796Z,12
2017-06-02T08:25:03.890Z,12
2017-06-02T08:26:16.293Z,16
2017-06-02T08:27:29.190Z,12
2017-06-02T08:28:42.084Z,12
2017-06-02T08:29:55.174Z,12
2017-06-02T08:31:07.576Z,12
2017-06-02T08:32:19.977Z,12
2017-06-02T08:33:32.381Z,12
2017-06-02T08:34:45.273Z,12
2017-06-02T08:35:57.679Z,12
2017-06-02T08:37:10.573Z,12
2017-06-02T08:38:22.977Z,12
2017-06-02T08:39:35.864Z,12
2017-06-02T08:40:48.963Z,12
2017-06-02T08:42:01.858Z,12
2017-06-02T08:43:14.750Z,12
2017-06-02T08:44:27.645Z,12
2017-06-02T08:45:40.046Z,12
2017-06-02T08:46:52.451Z,12
2017-06-02T08:48:04.363Z,12
2017-06-02T08:49:16.781Z,12
2017-06-02T08:50:29.692Z,12
2017-06-02T08:51:42.805Z,12
2017-06-02T08:52:55.225Z,4
2017-06-02T08:54:08.154Z,8
2017-06-02T08:55:20.572Z,12
2017-06-02T08:56:33.485Z,12
2017-06-02T08:57:46.598Z,12
2017-06-02T08:58:59.508Z,12
2017-06-02T09:00:11.441Z,12
2017-06-02T09:01:24.353Z,12
2017-06-02T09:02:37.464Z,4
2017-06-02T09:03:50.378Z,12
2017-06-02T09:05:03.287Z,12
2017-06-02T09:06:15.707Z,16
2017-06-02T09:07:28.618Z,12
2017-06-02T09:08:41.740Z,12
2017-06-02T09:09:54.164Z,12
2017-06-02T09:11:06.095Z,12
2017-06-02T09:12:18.519Z,4
2017-06-02T09:13:30.938Z,4
2017-06-02T09:14:43.366Z,16
2017-06-02T09:15:55.295Z,16
2017-06-02T09:17:08.219Z,12
2017-06-02T09:18:20.208Z,12
2017-06-02T09:19:32.829Z,12
2017-06-02T09:20:45.252Z,8
2017-06-02T09:21:57.675Z,16
2017-06-02T09:23:09.611Z,16
2017-06-02T09:24:22.031Z,12
2017-06-02T09:25:34.450Z,12
2017-06-02T09:26:47.360Z,8
2017-06-02T09:28:00.272Z,12
2017-06-02T09:29:12.200Z,12
2017-06-02T09:30:24.619Z,12
2017-06-02T09:31:37.532Z,16
2017-06-02T09:32:49.955Z,12
2017-06-02T09:34:02.374Z,8
2017-06-02T09:35:14.796Z,8
2017-06-02T09:36:26.734Z,20
2017-06-02T09:37:39.655Z,8
2017-06-02T09:38:52.111Z,12
2017-06-02T09:40:04.546Z,12
2017-06-02T09:41:17.657Z,16
2017-06-02T09:42:30.076Z,16
2017-06-02T09:43:42.495Z,16
2017-06-02T09:44:55.407Z,20
2017-06-02T09:46:08.052Z,24
2017-06-02T09:47:19.487Z,28
2017-06-02T09:48:31.908Z,32
2017-06-02T09:49:44.822Z,32
2017-06-02T09:50:57.242Z,36
2017-06-02T09:52:09.170Z,36
2017-06-02T09:53:22.076Z,40
2017-06-02T09:54:34.986Z,44
2017-06-02T09:55:47.903Z,48
2017-06-02T09:57:00.821Z,52
2017-06-02T09:58:13.726Z,52
2017-06-02T09:59:26.153Z,56
2017-06-02T10:00:39.067Z,56
2017-06-02T10:01:51.978Z,60
2017-06-02T10:03:04.451Z,60
2017-06-02T10:04:16.385Z,64
2017-06-02T10:05:28.801Z,68
2017-06-02T10:06:41.713Z,72
2017-06-02T10:07:53.646Z,72
2017-06-02T10:09:06.758Z,76
2017-06-02T10:10:19.669Z,76
2017-06-02T10:11:32.095Z,80
2017-06-02T10:12:45.003Z,80
2017-06-02T10:13:57.424Z,84
2017-06-02T10:15:10.338Z,88
2017-06-02T10:16:23.249Z,88
2017-06-02T10:17:35.177Z,88
2017-06-02T10:18:47.989Z,92
2017-06-02T10:20:00.764Z,92
2017-06-02T10:21:13.537Z,92
2017-06-02T10:22:25.834Z,96
2017-06-02T10:23:38.633Z,96
2017-06-02T10:24:51.406Z,100
2017-06-02T10:26:04.276Z,100
2017-06-02T10:27:17.197Z,104
2017-06-02T10:28:30.112Z,104
2017-06-02T10:29:43.027Z,108
2017-06-02T10:30:56.151Z,108
2017-06-02T10:32:08.573Z,108
2017-06-02T10:33:21.497Z,112
2017-06-02T10:34:34.408Z,112
2017-06-02T10:35:46.829Z,112
2017-06-02T10:36:59.255Z,116
2017-06-02T10:38:12.171Z,116
2017-06-02T10:39:25.088Z,120
2017-06-02T10:40:37.513Z,120
2017-06-02T10:41:50.624Z,116
2017-06-02T10:43:03.051Z,124
2017-06-02T10:44:15.967Z,120
2017-06-02T10:45:28.389Z,120
2017-06-02T10:46:41.500Z,124
2017-06-02T10:47:54.486Z,124
2017-06-02T10:49:07.417Z,124
2017-06-02T10:50:19.840Z,128
2017-06-02T10:51:32.264Z,128
2017-06-02T10:52:58.732Z,128
2017-06-02T10:54:11.648Z,132
2017-06-02T10:55:24.076Z,132
2017-06-02T10:56:37.190Z,132
2017-06-02T10:57:49.613Z,136
2017-06-02T10:59:02.036Z,136
2017-06-02T11:00:12.988Z,140
2017-06-02T11:01:25.418Z,140
2017-06-02T11:02:38.331Z,140
2017-06-02T11:03:51.258Z,140
2017-06-02T11:05:03.194Z,144
2017-06-02T11:06:16.110Z,144
2017-06-02T11:07:28.541Z,148
2017-06-02T11:08:40.962Z,148
2017-06-02T11:09:53.883Z,152
2017-06-02T11:11:06.804Z,152
2017-06-02T11:12:19.719Z,156
2017-06-02T11:13:31.653Z,156
2017-06-02T11:14:44.575Z,156
2017-06-02T11:15:57.510Z,160
2017-06-02T11:17:09.445Z,164
2017-06-02T11:18:23.161Z,168
2017-06-02T11:19:36.076Z,172
2017-06-02T11:20:48.505Z,176
2017-06-02T11:22:01.418Z,180
2017-06-02T11:23:13.840Z,184
2017-06-02T11:24:26.468Z,192
2017-06-02T11:25:38.399Z,216
2017-06-02T11:26:51.317Z,336
2017-06-02T11:28:04.235Z,568
2017-06-02T11:29:16.657Z,816
2017-06-02T11:30:43.617Z,1032
2017-06-02T11:31:56.531Z,1132
2017-06-02T11:33:09.450Z,1196
2017-06-02T11:34:22.563Z,1256
2017-06-02T11:35:34.989Z,1312
2017-06-02T11:36:47.816Z,1376
2017-06-02T11:38:00.590Z,1404
2017-06-02T11:39:12.882Z,1428
2017-06-02T11:40:26.060Z,1436
2017-06-02T11:41:38.840Z,1480
2017-06-02T11:42:51.618Z,1500
2017-06-02T11:44:04.396Z,1516
2017-06-02T11:45:17.171Z,1544
2017-06-02T11:46:29.469Z,1540
2017-06-02T11:47:42.242Z,1552
2017-06-02T11:48:54.536Z,1592
2017-06-02T11:50:07.313Z,1596
2017-06-02T11:51:18.649Z,1628
2017-06-02T11:52:31.431Z,1644
2017-06-02T11:53:44.207Z,1660
2017-06-02T11:54:56.506Z,1680
2017-06-02T11:56:09.283Z,1696
2017-06-02T11:57:21.584Z,1716
2017-06-02T11:58:34.358Z,1736
2017-06-02T11:59:47.137Z,1736
2017-06-02T12:00:59.437Z,1752
2017-06-02T12:02:12.212Z,1696
2017-06-02T12:03:24.573Z,1776
2017-06-02T12:04:37.347Z,1792
2017-06-02T12:05:50.590Z,1788
2017-06-02T12:07:03.371Z,1792
2017-06-02T12:08:16.144Z,1792
2017-06-02T12:09:28.922Z,1812
2017-06-02T12:10:41.223Z,1808
2017-06-02T12:12:08.073Z,1816
2017-06-02T12:13:19.885Z,1832
2017-06-02T12:14:32.665Z,1844
2017-06-02T12:15:45.643Z,1860
2017-06-02T12:16:58.424Z,1860
2017-06-02T12:18:11.203Z,1856
2017-06-02T12:19:23.497Z,1916
2017-06-02T12:20:36.276Z,1948
2017-06-02T12:21:49.058Z,1960
2017-06-02T12:23:01.370Z,1968
2017-06-02T12:24:13.671Z,1988
2017-06-02T12:25:25.485Z,1996
2017-06-02T12:26:38.261Z,2016
2017-06-02T12:27:51.041Z,2020
2017-06-02T12:29:03.817Z,2008
2017-06-02T12:30:16.596Z,2016
2017-06-02T12:31:29.373Z,1988
2017-06-02T12:32:56.224Z,1960
2017-06-02T12:34:08.724Z,1964
2017-06-02T12:35:21.565Z,1892
2017-06-02T12:36:34.352Z,1904
2017-06-02T12:37:47.129Z,1864
2017-06-02T12:38:59.426Z,1864
2017-06-02T12:40:11.723Z,1796
2017-06-02T12:41:24.558Z,1832
2017-06-02T12:42:37.354Z,1792
2017-06-02T12:43:50.336Z,1804
2017-06-02T12:45:03.106Z,1792
2017-06-02T12:46:15.421Z,1736
2017-06-02T12:47:28.194Z,1724
2017-06-02T12:48:40.486Z,1708
2017-06-02T12:49:53.505Z,1676
2017-06-02T12:51:06.423Z,1668
2017-06-02T12:52:19.338Z,1652
2017-06-02T12:53:32.254Z,1648
2017-06-02T12:54:44.678Z,1644
2017-06-02T12:55:57.599Z,1636
2017-06-02T12:57:10.024Z,1640
2017-06-02T12:58:22.448Z,1604
2017-06-02T12:59:35.364Z,1564
2017-06-02T13:00:47.787Z,1528
2017-06-02T13:02:00.722Z,1516
2017-06-02T13:03:13.156Z,1492
2017-06-02T13:04:25.582Z,1480
2017-06-02T13:05:38.700Z,1436
2017-06-02T13:06:51.621Z,1432
2017-06-02T13:08:04.543Z,1356
2017-06-02T13:09:17.465Z,1324
2017-06-02T13:10:29.599Z,1272
2017-06-02T13:11:42.023Z,1256
2017-06-02T13:12:53.957Z,1224
2017-06-02T13:14:06.385Z,1180
2017-06-02T13:15:18.809Z,1180
2017-06-02T13:16:31.929Z,1156
2017-06-02T13:17:44.353Z,1152
2017-06-02T13:18:56.859Z,1128
2017-06-02T13:20:09.906Z,1128
2017-06-02T13:21:22.445Z,1128
2017-06-02T13:22:34.995Z,1120
2017-06-02T13:23:48.031Z,1112
2017-06-02T13:25:01.071Z,1108
2017-06-02T13:26:13.519Z,1128
2017-06-02T13:27:26.614Z,1120
2017-06-02T13:28:39.022Z,1104
2017-06-02T13:29:51.431Z,1088
2017-06-02T13:31:03.838Z,1092
2017-06-02T13:32:15.753Z,1084
2017-06-02T13:33:27.670Z,1100
2017-06-02T13:34:40.565Z,1088
2017-06-02T13:35:53.459Z,1080
2017-06-02T13:37:06.360Z,1072
2017-06-02T13:38:19.110Z,1096
2017-06-02T13:39:32.008Z,1076
2017-06-02T13:40:44.413Z,1080
2017-06-02T13:41:56.817Z,1072
2017-06-02T13:43:09.224Z,1088
2017-06-02T13:44:21.630Z,1092
2017-06-02T13:45:34.525Z,1116
2017-06-02T13:46:47.423Z,1112
2017-06-02T13:47:59.829Z,1096
2017-06-02T13:49:12.719Z,1116
2017-06-02T13:50:25.614Z,1100
2017-06-02T13:51:38.509Z,1108
2017-06-02T13:52:51.408Z,1112
2017-06-02T13:54:03.811Z,1088
2017-06-02T13:55:16.899Z,1096
2017-06-02T13:56:29.794Z,1100
2017-06-02T13:57:42.206Z,1080
2017-06-02T13:58:55.102Z,1128
2017-06-02T14:00:07.713Z,1116
2017-06-02T14:01:20.128Z,1132
2017-06-02T14:02:33.020Z,1140
2017-06-02T14:03:45.362Z,1148
2017-06-02T14:04:58.142Z,1156
2017-06-02T14:06:10.447Z,1168
2017-06-02T14:07:23.224Z,1164
2017-06-02T14:08:35.523Z,1140
2017-06-02T14:09:48.312Z,1180
2017-06-02T14:11:01.091Z,1180
2017-06-02T14:12:13.867Z,1208
2017-06-02T14:13:26.166Z,1196
2017-06-02T14:14:38.461Z,1212
2017-06-02T14:15:50.758Z,1216
2017-06-02T14:17:03.536Z,1236
2017-06-02T14:18:16.324Z,1236
2017-06-02T14:19:28.621Z,1256
2017-06-02T14:20:40.924Z,1220
2017-06-02T14:21:53.710Z,1220
2017-06-02T14:23:06.004Z,1216
2017-06-02T14:24:18.782Z,1232
2017-06-02T14:25:31.910Z,1216
2017-06-02T14:26:44.688Z,1168
2017-06-02T14:27:56.504Z,1288
2017-06-02T14:29:08.803Z,1280
2017-06-02T14:30:21.784Z,1304
2017-06-02T14:31:34.081Z,1320
2017-06-02T14:32:46.865Z,1312
2017-06-02T14:34:13.235Z,1332
2017-06-02T14:35:25.529Z,1340
2017-06-02T14:36:37.830Z,1324
2017-06-02T14:37:50.126Z,1300
2017-06-02T14:39:02.911Z,1288
2017-06-02T14:40:14.723Z,1284
2017-06-02T14:41:27.023Z,1264
2017-06-02T14:42:39.806Z,1252
2017-06-02T14:43:52.583Z,1256
2017-06-02T14:45:05.360Z,1224
2017-06-02T14:46:17.660Z,1236
2017-06-02T14:47:30.437Z,1252
2017-06-02T14:48:43.298Z,1228
2017-06-02T14:49:56.192Z,1196
2017-06-02T14:51:08.801Z,1164
2017-06-02T14:52:21.694Z,1164
2017-06-02T14:53:34.101Z,1140
2017-06-02T14:54:47.001Z,1132
2017-06-02T14:56:00.097Z,1104
2017-06-02T14:57:12.705Z,1088
2017-06-02T14:58:25.119Z,1100
2017-06-02T14:59:37.041Z,1100
2017-06-02T15:00:49.942Z,1064
2017-06-02T15:02:03.038Z,1064
2017-06-02T15:03:15.444Z,1040
2017-06-02T15:04:27.363Z,1036
2017-06-02T15:05:40.261Z,1028
2017-06-02T15:06:52.179Z,1024
2017-06-02T15:08:04.586Z,1016
2017-06-02T15:09:16.715Z,1012
2017-06-02T15:10:29.611Z,1000
2017-06-02T15:11:42.505Z,992
2017-06-02T15:12:54.911Z,988
2017-06-02T15:14:08.027Z,976
2017-06-02T15:15:20.442Z,976
2017-06-02T15:16:33.335Z,624
2017-06-02T15:17:45.743Z,916
2017-06-02T15:18:58.641Z,944
2017-06-02T15:20:11.244Z,904
2017-06-02T15:21:24.148Z,892
2017-06-02T15:22:36.556Z,876
2017-06-02T15:23:49.456Z,856
2017-06-02T15:25:02.560Z,836
2017-06-02T15:26:14.969Z,816
2017-06-02T15:27:27.377Z,788
2017-06-02T15:28:39.785Z,764
2017-06-02T15:29:52.679Z,744
2017-06-02T15:31:05.575Z,728
2017-06-02T15:32:18.477Z,716
2017-06-02T15:33:31.296Z,684
2017-06-02T15:34:44.086Z,664
2017-06-02T15:35:56.387Z,648
2017-06-02T15:37:08.685Z,608
2017-06-02T15:38:20.986Z,608
2017-06-02T15:39:33.777Z,596
2017-06-02T15:40:46.567Z,584
2017-06-02T15:41:59.347Z,580
2017-06-02T15:43:11.651Z,568
2017-06-02T15:44:24.438Z,564
2017-06-02T15:45:37.238Z,560
2017-06-02T15:46:50.033Z,544
2017-06-02T15:48:02.814Z,420
2017-06-02T15:49:15.610Z,336
2017-06-02T15:50:28.421Z,452
2017-06-02T15:51:40.717Z,320
2017-06-02T15:52:53.495Z,252
2017-06-02T15:54:05.819Z,372
2017-06-02T15:55:18.127Z,428
2017-06-02T15:56:30.917Z,444
2017-06-02T15:57:43.226Z,516
2017-06-02T15:58:56.012Z,508
2017-06-02T16:00:08.806Z,512
2017-06-02T16:01:21.592Z,516
2017-06-02T16:02:34.383Z,512
2017-06-02T16:03:47.161Z,496
2017-06-02T16:04:59.463Z,480
2017-06-02T16:06:11.763Z,456
2017-06-02T16:07:24.546Z,444
2017-06-02T16:08:37.349Z,472
2017-06-02T16:09:50.340Z,488
2017-06-02T16:11:02.646Z,496
2017-06-02T16:12:14.959Z,496
2017-06-02T16:13:27.753Z,500
2017-06-02T16:14:40.546Z,500
2017-06-02T16:15:53.346Z,496
2017-06-02T16:17:05.659Z,488
2017-06-02T16:18:17.976Z,492
2017-06-02T16:19:30.767Z,500
2017-06-02T16:20:43.986Z,492
2017-06-02T16:21:56.302Z,484
2017-06-02T16:23:09.087Z,448
2017-06-02T16:24:21.873Z,464
2017-06-02T16:25:34.658Z,460
2017-06-02T16:26:47.452Z,456
2017-06-02T16:28:00.478Z,444
2017-06-02T16:29:13.272Z,440
2017-06-02T16:30:26.075Z,436
2017-06-02T16:31:38.866Z,436
2017-06-02T16:32:51.651Z,444
2017-06-02T16:34:04.442Z,456
2017-06-02T16:35:16.746Z,456
2017-06-02T16:36:29.534Z,440
2017-06-02T16:37:42.316Z,428
2017-06-02T16:38:54.612Z,424
2017-06-02T16:40:07.406Z,416
2017-06-02T16:41:19.914Z,416
2017-06-02T16:42:32.699Z,420
2017-06-02T16:43:45.481Z,420
2017-06-02T16:44:57.777Z,440
2017-06-02T16:46:09.809Z,456
2017-06-02T16:47:22.118Z,456
2017-06-02T16:48:34.906Z,452
2017-06-02T16:49:47.201Z,464
2017-06-02T16:50:59.502Z,480
2017-06-02T16:52:26.364Z,476
2017-06-02T16:53:39.157Z,452
2017-06-02T16:54:52.776Z,416
2017-06-02T16:56:05.555Z,384